sensor_id;sensor_type;location;lat;lon;timestamp;P1;durP1;ratioP1;P2;durP2;ratioP2
47625;SDS011;33342;45.574;9.252;2023-05-19T00:01:18;10.57;;;4.68;;
47625;SDS011;33342;45.574;9.252;2023-05-19T00:03:52;6.72;;;4.15;;
47625;SDS011;33342;45.574;9.252;2023-05-19T00:06:23;6.88;;;4.18;;
47625;SDS011;33342;45.574;9.252;2023-05-19T00:08:55;8.32;;;4.78;;
47625;SDS011;33342;45.574;9.252;2023-05-19T00:11:23;8.82;;;4.80;;
47625;SDS011;33342;45.574;9.252;2023-05-19T00:13:56;8.98;;;4.57;;
47625;SDS011;33342;45.574;9.252;2023-05-19T00:16:25;8.60;;;4.97;;
47625;SDS011;33342;45.574;9.252;2023-05-19T00:18:54;8.50;;;4.93;;
47625;SDS011;33342;45.574;9.252;2023-05-19T00:21:22;8.25;;;4.85;;
47625;SDS011;33342;45.574;9.252;2023-05-19T00:23:49;9.65;;;4.50;;
47625;SDS011;33342;45.574;9.252;2023-05-19T00:26:16;8.77;;;4.88;;
47625;SDS011;33342;45.574;9.252;2023-05-19T00:28:53;9.05;;;4.97;;
47625;SDS011;33342;45.574;9.252;2023-05-19T00:31:20;8.10;;;4.80;;
47625;SDS011;33342;45.574;9.252;2023-05-19T00:33:47;10.80;;;4.97;;
47625;SDS011;33342;45.574;9.252;2023-05-19T00:36:15;12.68;;;4.95;;
47625;SDS011;33342;45.574;9.252;2023-05-19T00:38:42;8.38;;;5.30;;
47625;SDS011;33342;45.574;9.252;2023-05-19T00:41:09;10.77;;;5.38;;
47625;SDS011;33342;45.574;9.252;2023-05-19T00:43:36;8.38;;;4.60;;
47625;SDS011;33342;45.574;9.252;2023-05-19T00:46:03;7.25;;;5.05;;
47625;SDS011;33342;45.574;9.252;2023-05-19T00:48:30;9.93;;;4.80;;
47625;SDS011;33342;45.574;9.252;2023-05-19T00:50:58;9.55;;;4.80;;
47625;SDS011;33342;45.574;9.252;2023-05-19T00:53:33;9.18;;;5.25;;
47625;SDS011;33342;45.574;9.252;2023-05-19T00:56:00;9.43;;;6.63;;
47625;SDS011;33342;45.574;9.252;2023-05-19T00:58:29;9.25;;;5.90;;
47625;SDS011;33342;45.574;9.252;2023-05-19T01:00:58;8.23;;;5.97;;
47625;SDS011;33342;45.574;9.252;2023-05-19T01:03:30;9.05;;;6.82;;
47625;SDS011;33342;45.574;9.252;2023-05-19T01:06:02;10.90;;;6.82;;
47625;SDS011;33342;45.574;9.252;2023-05-19T01:08:33;12.07;;;7.18;;
47625;SDS011;33342;45.574;9.252;2023-05-19T01:11:02;12.68;;;7.90;;
47625;SDS011;33342;45.574;9.252;2023-05-19T01:13:30;14.90;;;9.55;;
47625;SDS011;33342;45.574;9.252;2023-05-19T01:16:06;12.30;;;7.93;;
47625;SDS011;33342;45.574;9.252;2023-05-19T01:18:42;12.95;;;6.90;;
47625;SDS011;33342;45.574;9.252;2023-05-19T01:30:36;9.95;;;7.93;;
47625;SDS011;33342;45.574;9.252;2023-05-19T01:33:09;12.93;;;8.10;;
47625;SDS011;33342;45.574;9.252;2023-05-19T01:35:40;12.13;;;8.13;;
47625;SDS011;33342;45.574;9.252;2023-05-19T01:38:09;12.25;;;8.38;;
47625;SDS011;33342;45.574;9.252;2023-05-19T01:40:39;9.70;;;7.78;;
47625;SDS011;33342;45.574;9.252;2023-05-19T01:43:08;10.98;;;9.10;;
47625;SDS011;33342;45.574;9.252;2023-05-19T01:45:37;12.20;;;8.68;;
47625;SDS011;33342;45.574;9.252;2023-05-19T01:48:05;14.93;;;8.75;;
47625;SDS011;33342;45.574;9.252;2023-05-19T01:50:37;11.52;;;9.45;;
47625;SDS011;33342;45.574;9.252;2023-05-19T01:53:05;11.80;;;9.50;;
47625;SDS011;33342;45.574;9.252;2023-05-19T01:55:40;10.93;;;9.32;;
47625;SDS011;33342;45.574;9.252;2023-05-19T01:58:18;12.32;;;10.30;;
47625;SDS011;33342;45.574;9.252;2023-05-19T02:01:08;12.32;;;9.10;;
47625;SDS011;33342;45.574;9.252;2023-05-19T02:06:31;13.60;;;9.25;;
47625;SDS011;33342;45.574;9.252;2023-05-19T02:09:31;13.30;;;9.82;;
47625;SDS011;33342;45.574;9.252;2023-05-19T02:14:39;13.38;;;10.02;;
47625;SDS011;33342;45.574;9.252;2023-05-19T02:17:18;13.02;;;10.40;;
47625;SDS011;33342;45.574;9.252;2023-05-19T02:19:46;12.60;;;10.32;;
47625;SDS011;33342;45.574;9.252;2023-05-19T02:22:13;12.68;;;10.52;;
47625;SDS011;33342;45.574;9.252;2023-05-19T02:24:40;13.65;;;10.45;;
47625;SDS011;33342;45.574;9.252;2023-05-19T02:27:07;14.18;;;10.73;;
47625;SDS011;33342;45.574;9.252;2023-05-19T02:29:34;13.70;;;10.30;;
47625;SDS011;33342;45.574;9.252;2023-05-19T02:32:01;15.43;;;11.60;;
47625;SDS011;33342;45.574;9.252;2023-05-19T02:34:29;14.98;;;11.63;;
47625;SDS011;33342;45.574;9.252;2023-05-19T02:36:56;13.85;;;11.60;;
47625;SDS011;33342;45.574;9.252;2023-05-19T02:39:23;15.30;;;12.77;;
47625;SDS011;33342;45.574;9.252;2023-05-19T02:41:50;14.60;;;12.07;;
47625;SDS011;33342;45.574;9.252;2023-05-19T02:44:17;13.32;;;11.90;;
47625;SDS011;33342;45.574;9.252;2023-05-19T02:46:44;15.07;;;13.27;;
47625;SDS011;33342;45.574;9.252;2023-05-19T02:49:11;15.23;;;13.32;;
47625;SDS011;33342;45.574;9.252;2023-05-19T02:51:38;16.67;;;13.07;;
47625;SDS011;33342;45.574;9.252;2023-05-19T02:54:05;15.70;;;13.55;;
47625;SDS011;33342;45.574;9.252;2023-05-19T02:56:32;18.63;;;13.80;;
47625;SDS011;33342;45.574;9.252;2023-05-19T02:58:59;17.80;;;13.48;;
47625;SDS011;33342;45.574;9.252;2023-05-19T03:01:27;16.17;;;13.20;;
47625;SDS011;33342;45.574;9.252;2023-05-19T03:03:54;15.88;;;13.38;;
47625;SDS011;33342;45.574;9.252;2023-05-19T03:06:21;14.38;;;12.05;;
47625;SDS011;33342;45.574;9.252;2023-05-19T03:08:49;18.38;;;12.77;;
47625;SDS011;33342;45.574;9.252;2023-05-19T03:11:16;15.80;;;13.55;;
47625;SDS011;33342;45.574;9.252;2023-05-19T03:13:43;15.77;;;13.70;;
47625;SDS011;33342;45.574;9.252;2023-05-19T03:16:10;17.65;;;13.52;;
47625;SDS011;33342;45.574;9.252;2023-05-19T03:18:38;17.17;;;13.02;;
47625;SDS011;33342;45.574;9.252;2023-05-19T03:21:05;16.10;;;13.57;;
47625;SDS011;33342;45.574;9.252;2023-05-19T03:23:32;16.10;;;13.48;;
47625;SDS011;33342;45.574;9.252;2023-05-19T03:25:59;17.20;;;14.80;;
47625;SDS011;33342;45.574;9.252;2023-05-19T03:28:26;17.15;;;13.75;;
47625;SDS011;33342;45.574;9.252;2023-05-19T03:30:53;17.08;;;14.50;;
47625;SDS011;33342;45.574;9.252;2023-05-19T03:33:25;17.20;;;14.57;;
47625;SDS011;33342;45.574;9.252;2023-05-19T03:35:55;17.70;;;15.25;;
47625;SDS011;33342;45.574;9.252;2023-05-19T03:38:25;20.25;;;14.98;;
47625;SDS011;33342;45.574;9.252;2023-05-19T03:40:56;17.77;;;15.13;;
47625;SDS011;33342;45.574;9.252;2023-05-19T03:43:23;20.67;;;15.63;;
47625;SDS011;33342;45.574;9.252;2023-05-19T03:45:56;17.95;;;15.27;;
47625;SDS011;33342;45.574;9.252;2023-05-19T03:48:50;20.23;;;16.20;;
47625;SDS011;33342;45.574;9.252;2023-05-19T03:51:35;18.52;;;15.70;;
47625;SDS011;33342;45.574;9.252;2023-05-19T03:54:16;19.08;;;15.05;;
47625;SDS011;33342;45.574;9.252;2023-05-19T03:56:43;20.08;;;15.80;;
47625;SDS011;33342;45.574;9.252;2023-05-19T03:59:10;20.98;;;17.10;;
47625;SDS011;33342;45.574;9.252;2023-05-19T04:01:37;17.75;;;15.60;;
47625;SDS011;33342;45.574;9.252;2023-05-19T04:04:04;21.63;;;17.15;;
47625;SDS011;33342;45.574;9.252;2023-05-19T04:06:31;18.77;;;15.80;;
47625;SDS011;33342;45.574;9.252;2023-05-19T04:09:00;19.52;;;17.45;;
47625;SDS011;33342;45.574;9.252;2023-05-19T04:11:27;18.35;;;16.45;;
47625;SDS011;33342;45.574;9.252;2023-05-19T04:13:54;20.20;;;16.73;;
47625;SDS011;33342;45.574;9.252;2023-05-19T04:16:21;19.15;;;16.60;;
47625;SDS011;33342;45.574;9.252;2023-05-19T04:18:49;18.45;;;16.35;;
47625;SDS011;33342;45.574;9.252;2023-05-19T04:21:16;17.95;;;15.88;;
47625;SDS011;33342;45.574;9.252;2023-05-19T04:23:43;19.30;;;16.00;;
47625;SDS011;33342;45.574;9.252;2023-05-19T04:26:10;17.48;;;15.38;;
47625;SDS011;33342;45.574;9.252;2023-05-19T04:28:37;18.20;;;15.52;;
47625;SDS011;33342;45.574;9.252;2023-05-19T04:31:07;18.23;;;14.80;;
47625;SDS011;33342;45.574;9.252;2023-05-19T04:33:36;19.92;;;11.73;;
47625;SDS011;33342;45.574;9.252;2023-05-19T04:36:05;14.23;;;11.85;;
47625;SDS011;33342;45.574;9.252;2023-05-19T04:38:39;14.95;;;12.98;;
47625;SDS011;33342;45.574;9.252;2023-05-19T04:41:08;17.90;;;11.73;;
47625;SDS011;33342;45.574;9.252;2023-05-19T04:43:35;13.20;;;11.52;;
47625;SDS011;33342;45.574;9.252;2023-05-19T04:46:07;13.60;;;10.88;;
47625;SDS011;33342;45.574;9.252;2023-05-19T04:48:40;14.05;;;11.95;;
47625;SDS011;33342;45.574;9.252;2023-05-19T04:51:07;13.85;;;11.00;;
47625;SDS011;33342;45.574;9.252;2023-05-19T04:53:34;15.20;;;11.23;;
47625;SDS011;33342;45.574;9.252;2023-05-19T04:56:04;12.05;;;10.40;;
47625;SDS011;33342;45.574;9.252;2023-05-19T04:58:32;11.45;;;9.30;;
47625;SDS011;33342;45.574;9.252;2023-05-19T05:00:59;13.98;;;9.88;;
47625;SDS011;33342;45.574;9.252;2023-05-19T05:03:27;13.45;;;9.75;;
47625;SDS011;33342;45.574;9.252;2023-05-19T05:05:56;13.25;;;8.98;;
47625;SDS011;33342;45.574;9.252;2023-05-19T05:08:24;12.63;;;8.90;;
47625;SDS011;33342;45.574;9.252;2023-05-19T05:10:52;13.57;;;8.48;;
47625;SDS011;33342;45.574;9.252;2023-05-19T05:13:21;11.63;;;8.05;;
47625;SDS011;33342;45.574;9.252;2023-05-19T05:15:49;13.35;;;8.10;;
47625;SDS011;33342;45.574;9.252;2023-05-19T05:18:17;10.68;;;7.65;;
47625;SDS011;33342;45.574;9.252;2023-05-19T05:20:45;12.00;;;7.22;;
47625;SDS011;33342;45.574;9.252;2023-05-19T05:23:14;10.50;;;6.68;;
47625;SDS011;33342;45.574;9.252;2023-05-19T05:25:45;11.25;;;6.05;;
47625;SDS011;33342;45.574;9.252;2023-05-19T05:28:14;13.05;;;7.20;;
47625;SDS011;33342;45.574;9.252;2023-05-19T05:30:42;11.05;;;7.05;;
47625;SDS011;33342;45.574;9.252;2023-05-19T05:33:12;10.40;;;6.60;;
47625;SDS011;33342;45.574;9.252;2023-05-19T05:35:40;10.82;;;6.78;;
47625;SDS011;33342;45.574;9.252;2023-05-19T05:38:09;11.55;;;7.28;;
47625;SDS011;33342;45.574;9.252;2023-05-19T05:40:37;13.05;;;7.63;;
47625;SDS011;33342;45.574;9.252;2023-05-19T05:43:04;14.57;;;7.10;;
47625;SDS011;33342;45.574;9.252;2023-05-19T05:45:36;10.30;;;7.00;;
47625;SDS011;33342;45.574;9.252;2023-05-19T05:48:04;10.80;;;7.07;;
47625;SDS011;33342;45.574;9.252;2023-05-19T05:50:31;14.55;;;6.68;;
47625;SDS011;33342;45.574;9.252;2023-05-19T05:53:00;11.65;;;6.75;;
47625;SDS011;33342;45.574;9.252;2023-05-19T05:55:33;10.05;;;6.95;;
47625;SDS011;33342;45.574;9.252;2023-05-19T05:58:01;11.30;;;7.15;;
47625;SDS011;33342;45.574;9.252;2023-05-19T06:00:29;11.32;;;7.30;;
47625;SDS011;33342;45.574;9.252;2023-05-19T06:02:56;12.13;;;7.75;;
47625;SDS011;33342;45.574;9.252;2023-05-19T06:05:25;14.65;;;6.75;;
47625;SDS011;33342;45.574;9.252;2023-05-19T06:07:52;13.80;;;7.15;;
47625;SDS011;33342;45.574;9.252;2023-05-19T06:10:23;17.10;;;7.18;;
47625;SDS011;33342;45.574;9.252;2023-05-19T06:12:52;12.05;;;6.85;;
47625;SDS011;33342;45.574;9.252;2023-05-19T06:15:21;11.80;;;7.15;;
47625;SDS011;33342;45.574;9.252;2023-05-19T06:18:15;16.50;;;7.85;;
47625;SDS011;33342;45.574;9.252;2023-05-19T06:20:42;12.85;;;7.22;;
47625;SDS011;33342;45.574;9.252;2023-05-19T06:23:09;13.98;;;6.88;;
47625;SDS011;33342;45.574;9.252;2023-05-19T06:25:36;9.40;;;7.18;;
47625;SDS011;33342;45.574;9.252;2023-05-19T06:28:04;11.23;;;6.55;;
47625;SDS011;33342;45.574;9.252;2023-05-19T06:30:31;11.15;;;6.80;;
47625;SDS011;33342;45.574;9.252;2023-05-19T06:33:13;12.27;;;7.00;;
47625;SDS011;33342;45.574;9.252;2023-05-19T06:35:41;12.60;;;6.90;;
47625;SDS011;33342;45.574;9.252;2023-05-19T06:38:08;12.07;;;7.20;;
47625;SDS011;33342;45.574;9.252;2023-05-19T06:40:35;9.90;;;7.25;;
47625;SDS011;33342;45.574;9.252;2023-05-19T06:43:02;10.75;;;6.43;;
47625;SDS011;33342;45.574;9.252;2023-05-19T06:45:51;13.48;;;7.35;;
47625;SDS011;33342;45.574;9.252;2023-05-19T06:48:18;11.48;;;6.63;;
47625;SDS011;33342;45.574;9.252;2023-05-19T06:50:46;13.45;;;7.10;;
47625;SDS011;33342;45.574;9.252;2023-05-19T06:53:13;10.65;;;5.50;;
47625;SDS011;33342;45.574;9.252;2023-05-19T06:55:42;11.52;;;6.45;;
47625;SDS011;33342;45.574;9.252;2023-05-19T06:58:25;10.77;;;7.13;;
47625;SDS011;33342;45.574;9.252;2023-05-19T07:00:52;11.27;;;6.55;;
47625;SDS011;33342;45.574;9.252;2023-05-19T07:03:20;10.70;;;5.70;;
47625;SDS011;33342;45.574;9.252;2023-05-19T07:05:47;11.25;;;6.32;;
47625;SDS011;33342;45.574;9.252;2023-05-19T07:08:14;12.48;;;5.80;;
47625;SDS011;33342;45.574;9.252;2023-05-19T07:10:42;9.77;;;6.10;;
47625;SDS011;33342;45.574;9.252;2023-05-19T07:13:11;13.55;;;6.05;;
47625;SDS011;33342;45.574;9.252;2023-05-19T07:15:39;8.73;;;5.57;;
47625;SDS011;33342;45.574;9.252;2023-05-19T07:18:06;11.07;;;6.03;;
47625;SDS011;33342;45.574;9.252;2023-05-19T07:20:34;12.80;;;5.90;;
47625;SDS011;33342;45.574;9.252;2023-05-19T07:23:02;16.45;;;6.97;;
47625;SDS011;33342;45.574;9.252;2023-05-19T07:25:30;18.88;;;7.55;;
47625;SDS011;33342;45.574;9.252;2023-05-19T07:27:58;29.52;;;8.55;;
47625;SDS011;33342;45.574;9.252;2023-05-19T07:30:26;29.27;;;8.85;;
47625;SDS011;33342;45.574;9.252;2023-05-19T07:32:53;18.27;;;7.53;;
47625;SDS011;33342;45.574;9.252;2023-05-19T07:35:21;32.65;;;10.60;;
47625;SDS011;33342;45.574;9.252;2023-05-19T07:37:48;17.60;;;6.75;;
47625;SDS011;33342;45.574;9.252;2023-05-19T07:40:17;11.45;;;5.50;;
47625;SDS011;33342;45.574;9.252;2023-05-19T07:42:44;13.45;;;6.57;;
47625;SDS011;33342;45.574;9.252;2023-05-19T07:45:11;14.82;;;6.85;;
47625;SDS011;33342;45.574;9.252;2023-05-19T07:47:38;14.38;;;6.63;;
47625;SDS011;33342;45.574;9.252;2023-05-19T07:50:05;14.20;;;6.78;;
47625;SDS011;33342;45.574;9.252;2023-05-19T07:52:33;26.75;;;8.65;;
47625;SDS011;33342;45.574;9.252;2023-05-19T07:55:00;17.80;;;7.05;;
47625;SDS011;33342;45.574;9.252;2023-05-19T07:57:27;12.50;;;6.32;;
47625;SDS011;33342;45.574;9.252;2023-05-19T07:59:54;13.18;;;6.28;;
47625;SDS011;33342;45.574;9.252;2023-05-19T08:02:21;10.60;;;6.20;;
47625;SDS011;33342;45.574;9.252;2023-05-19T08:04:48;10.30;;;6.18;;
47625;SDS011;33342;45.574;9.252;2023-05-19T08:07:15;10.80;;;5.88;;
47625;SDS011;33342;45.574;9.252;2023-05-19T08:09:42;12.52;;;6.30;;
47625;SDS011;33342;45.574;9.252;2023-05-19T08:12:09;12.45;;;6.40;;
47625;SDS011;33342;45.574;9.252;2023-05-19T08:14:36;12.57;;;6.20;;
47625;SDS011;33342;45.574;9.252;2023-05-19T08:17:03;18.27;;;6.22;;
47625;SDS011;33342;45.574;9.252;2023-05-19T08:19:30;9.45;;;5.78;;
47625;SDS011;33342;45.574;9.252;2023-05-19T08:21:57;12.10;;;5.60;;
47625;SDS011;33342;45.574;9.252;2023-05-19T08:24:26;12.50;;;5.53;;
47625;SDS011;33342;45.574;9.252;2023-05-19T08:26:58;11.15;;;6.05;;
47625;SDS011;33342;45.574;9.252;2023-05-19T08:29:25;10.65;;;5.43;;
47625;SDS011;33342;45.574;9.252;2023-05-19T08:31:52;10.60;;;5.90;;
47625;SDS011;33342;45.574;9.252;2023-05-19T08:34:19;9.75;;;5.82;;
47625;SDS011;33342;45.574;9.252;2023-05-19T08:36:47;9.10;;;5.50;;
47625;SDS011;33342;45.574;9.252;2023-05-19T08:39:14;11.98;;;6.00;;
47625;SDS011;33342;45.574;9.252;2023-05-19T08:41:43;11.13;;;6.30;;
47625;SDS011;33342;45.574;9.252;2023-05-19T08:44:10;10.85;;;6.10;;
47625;SDS011;33342;45.574;9.252;2023-05-19T08:46:37;9.45;;;5.70;;
47625;SDS011;33342;45.574;9.252;2023-05-19T08:49:07;11.65;;;5.95;;
47625;SDS011;33342;45.574;9.252;2023-05-19T08:54:16;10.65;;;6.10;;
47625;SDS011;33342;45.574;9.252;2023-05-19T08:56:46;11.00;;;5.97;;
47625;SDS011;33342;45.574;9.252;2023-05-19T08:59:13;11.32;;;5.70;;
47625;SDS011;33342;45.574;9.252;2023-05-19T09:01:44;10.15;;;6.78;;
47625;SDS011;33342;45.574;9.252;2023-05-19T09:04:12;10.40;;;6.35;;
47625;SDS011;33342;45.574;9.252;2023-05-19T09:06:39;11.93;;;6.45;;
47625;SDS011;33342;45.574;9.252;2023-05-19T09:09:07;10.25;;;6.72;;
47625;SDS011;33342;45.574;9.252;2023-05-19T09:11:34;9.13;;;5.75;;
47625;SDS011;33342;45.574;9.252;2023-05-19T09:14:03;11.02;;;6.28;;
47625;SDS011;33342;45.574;9.252;2023-05-19T09:16:31;12.45;;;7.13;;
47625;SDS011;33342;45.574;9.252;2023-05-19T09:18:59;11.52;;;6.70;;
47625;SDS011;33342;45.574;9.252;2023-05-19T09:21:29;11.93;;;6.75;;
47625;SDS011;33342;45.574;9.252;2023-05-19T09:24:02;11.02;;;6.57;;
47625;SDS011;33342;45.574;9.252;2023-05-19T09:26:40;10.07;;;6.57;;
47625;SDS011;33342;45.574;9.252;2023-05-19T09:29:11;12.02;;;6.50;;
47625;SDS011;33342;45.574;9.252;2023-05-19T09:31:45;12.88;;;6.65;;
47625;SDS011;33342;45.574;9.252;2023-05-19T09:34:17;13.20;;;7.97;;
47625;SDS011;33342;45.574;9.252;2023-05-19T09:36:47;11.57;;;6.78;;
47625;SDS011;33342;45.574;9.252;2023-05-19T09:39:15;11.20;;;6.55;;
47625;SDS011;33342;45.574;9.252;2023-05-19T09:41:43;10.32;;;6.25;;
47625;SDS011;33342;45.574;9.252;2023-05-19T09:44:20;15.88;;;7.28;;
47625;SDS011;33342;45.574;9.252;2023-05-19T09:46:55;23.27;;;7.43;;
47625;SDS011;33342;45.574;9.252;2023-05-19T09:49:24;9.80;;;6.95;;
47625;SDS011;33342;45.574;9.252;2023-05-19T09:51:58;11.50;;;7.55;;
47625;SDS011;33342;45.574;9.252;2023-05-19T09:54:27;15.45;;;10.50;;
47625;SDS011;33342;45.574;9.252;2023-05-19T09:57:01;27.17;;;20.95;;
47625;SDS011;33342;45.574;9.252;2023-05-19T09:59:31;9.93;;;7.82;;
47625;SDS011;33342;45.574;9.252;2023-05-19T10:01:59;11.27;;;6.97;;
47625;SDS011;33342;45.574;9.252;2023-05-19T10:04:28;9.73;;;7.07;;
47625;SDS011;33342;45.574;9.252;2023-05-19T10:06:57;11.68;;;8.60;;
47625;SDS011;33342;45.574;9.252;2023-05-19T10:09:31;11.07;;;7.70;;
47625;SDS011;33342;45.574;9.252;2023-05-19T10:11:59;13.90;;;7.68;;
47625;SDS011;33342;45.574;9.252;2023-05-19T10:14:28;12.48;;;8.20;;
47625;SDS011;33342;45.574;9.252;2023-05-19T10:16:57;11.73;;;8.30;;
47625;SDS011;33342;45.574;9.252;2023-05-19T10:19:26;12.02;;;8.57;;
47625;SDS011;33342;45.574;9.252;2023-05-19T10:21:54;12.82;;;8.50;;
47625;SDS011;33342;45.574;9.252;2023-05-19T10:24:21;11.70;;;7.40;;
47625;SDS011;33342;45.574;9.252;2023-05-19T10:26:50;11.27;;;7.68;;
47625;SDS011;33342;45.574;9.252;2023-05-19T10:29:23;11.65;;;7.55;;
47625;SDS011;33342;45.574;9.252;2023-05-19T10:31:54;9.85;;;7.18;;
47625;SDS011;33342;45.574;9.252;2023-05-19T10:34:33;12.63;;;7.18;;
47625;SDS011;33342;45.574;9.252;2023-05-19T10:40:10;10.25;;;7.20;;
47625;SDS011;33342;45.574;9.252;2023-05-19T10:42:52;12.52;;;7.80;;
47625;SDS011;33342;45.574;9.252;2023-05-19T10:45:45;14.02;;;8.35;;
47625;SDS011;33342;45.574;9.252;2023-05-19T10:48:14;13.00;;;8.32;;
47625;SDS011;33342;45.574;9.252;2023-05-19T10:50:43;12.85;;;8.13;;
47625;SDS011;33342;45.574;9.252;2023-05-19T10:53:14;11.57;;;8.63;;
47625;SDS011;33342;45.574;9.252;2023-05-19T10:55:53;13.35;;;8.95;;
47625;SDS011;33342;45.574;9.252;2023-05-19T11:01:17;13.45;;;8.13;;
47625;SDS011;33342;45.574;9.252;2023-05-19T11:03:46;12.67;;;9.30;;
47625;SDS011;33342;45.574;9.252;2023-05-19T11:06:26;13.23;;;8.23;;
47625;SDS011;33342;45.574;9.252;2023-05-19T11:09:13;13.48;;;8.60;;
47625;SDS011;33342;45.574;9.252;2023-05-19T11:14:25;15.38;;;9.18;;
47625;SDS011;33342;45.574;9.252;2023-05-19T11:16:55;27.30;;;21.38;;
47625;SDS011;33342;45.574;9.252;2023-05-19T11:19:27;28.50;;;18.45;;
47625;SDS011;33342;45.574;9.252;2023-05-19T11:21:57;13.50;;;9.50;;
47625;SDS011;33342;45.574;9.252;2023-05-19T11:24:34;14.30;;;9.32;;
47625;SDS011;33342;45.574;9.252;2023-05-19T11:32:34;13.73;;;9.88;;
47625;SDS011;33342;45.574;9.252;2023-05-19T11:35:05;14.20;;;9.80;;
47625;SDS011;33342;45.574;9.252;2023-05-19T11:37:33;13.48;;;9.27;;
47625;SDS011;33342;45.574;9.252;2023-05-19T11:40:02;13.23;;;9.95;;
47625;SDS011;33342;45.574;9.252;2023-05-19T11:42:33;12.40;;;9.10;;
47625;SDS011;33342;45.574;9.252;2023-05-19T11:45:01;14.05;;;9.93;;
47625;SDS011;33342;45.574;9.252;2023-05-19T11:47:31;15.38;;;10.38;;
47625;SDS011;33342;45.574;9.252;2023-05-19T11:50:12;12.80;;;9.70;;
47625;SDS011;33342;45.574;9.252;2023-05-19T11:52:43;13.88;;;10.27;;
47625;SDS011;33342;45.574;9.252;2023-05-19T11:55:14;15.45;;;9.85;;
47625;SDS011;33342;45.574;9.252;2023-05-19T11:57:49;13.57;;;9.50;;
47625;SDS011;33342;45.574;9.252;2023-05-19T12:00:29;17.50;;;10.25;;
47625;SDS011;33342;45.574;9.252;2023-05-19T12:03:02;13.15;;;9.15;;
47625;SDS011;33342;45.574;9.252;2023-05-19T12:05:30;13.93;;;10.63;;
47625;SDS011;33342;45.574;9.252;2023-05-19T12:08:01;14.43;;;9.77;;
47625;SDS011;33342;45.574;9.252;2023-05-19T12:10:29;15.10;;;10.30;;
47625;SDS011;33342;45.574;9.252;2023-05-19T12:12:56;16.08;;;9.60;;
47625;SDS011;33342;45.574;9.252;2023-05-19T12:15:25;15.15;;;10.75;;
47625;SDS011;33342;45.574;9.252;2023-05-19T12:17:55;13.63;;;9.95;;
47625;SDS011;33342;45.574;9.252;2023-05-19T12:20:24;14.80;;;10.38;;
47625;SDS011;33342;45.574;9.252;2023-05-19T12:22:55;15.07;;;9.65;;
47625;SDS011;33342;45.574;9.252;2023-05-19T12:25:23;15.07;;;11.07;;
47625;SDS011;33342;45.574;9.252;2023-05-19T12:27:50;16.83;;;10.38;;
47625;SDS011;33342;45.574;9.252;2023-05-19T12:30:24;14.30;;;10.55;;
47625;SDS011;33342;45.574;9.252;2023-05-19T12:32:53;12.73;;;9.85;;
47625;SDS011;33342;45.574;9.252;2023-05-19T12:35:27;15.07;;;10.32;;
47625;SDS011;33342;45.574;9.252;2023-05-19T12:37:55;13.43;;;10.98;;
47625;SDS011;33342;45.574;9.252;2023-05-19T12:40:23;13.07;;;9.85;;
47625;SDS011;33342;45.574;9.252;2023-05-19T12:42:54;14.82;;;10.93;;
47625;SDS011;33342;45.574;9.252;2023-05-19T12:45:24;16.00;;;11.40;;
47625;SDS011;33342;45.574;9.252;2023-05-19T12:47:53;16.50;;;12.57;;
47625;SDS011;33342;45.574;9.252;2023-05-19T12:50:28;14.23;;;11.55;;
47625;SDS011;33342;45.574;9.252;2023-05-19T12:52:57;14.55;;;11.77;;
47625;SDS011;33342;45.574;9.252;2023-05-19T12:55:25;14.82;;;11.45;;
47625;SDS011;33342;45.574;9.252;2023-05-19T12:57:52;14.07;;;11.13;;
47625;SDS011;33342;45.574;9.252;2023-05-19T13:00:22;15.07;;;11.13;;
47625;SDS011;33342;45.574;9.252;2023-05-19T13:03:02;17.77;;;11.27;;
47625;SDS011;33342;45.574;9.252;2023-05-19T13:05:38;18.30;;;12.63;;
47625;SDS011;33342;45.574;9.252;2023-05-19T13:08:09;17.90;;;11.70;;
47625;SDS011;33342;45.574;9.252;2023-05-19T13:10:38;14.55;;;11.30;;
47625;SDS011;33342;45.574;9.252;2023-05-19T13:13:06;15.38;;;11.75;;
47625;SDS011;33342;45.574;9.252;2023-05-19T13:15:36;14.75;;;11.23;;
47625;SDS011;33342;45.574;9.252;2023-05-19T13:18:06;14.63;;;11.82;;
47625;SDS011;33342;45.574;9.252;2023-05-19T13:20:35;17.40;;;11.73;;
47625;SDS011;33342;45.574;9.252;2023-05-19T13:23:03;14.68;;;11.35;;
47625;SDS011;33342;45.574;9.252;2023-05-19T13:25:34;17.73;;;10.82;;
47625;SDS011;33342;45.574;9.252;2023-05-19T13:28:02;15.88;;;11.77;;
47625;SDS011;33342;45.574;9.252;2023-05-19T13:30:31;15.50;;;12.05;;
47625;SDS011;33342;45.574;9.252;2023-05-19T13:33:00;15.88;;;11.18;;
47625;SDS011;33342;45.574;9.252;2023-05-19T13:35:27;16.38;;;12.45;;
47625;SDS011;33342;45.574;9.252;2023-05-19T13:37:54;15.30;;;12.02;;
47625;SDS011;33342;45.574;9.252;2023-05-19T13:40:21;18.15;;;11.98;;
47625;SDS011;33342;45.574;9.252;2023-05-19T13:42:49;19.13;;;14.20;;
47625;SDS011;33342;45.574;9.252;2023-05-19T13:45:16;17.63;;;12.38;;
47625;SDS011;33342;45.574;9.252;2023-05-19T13:47:43;15.52;;;11.98;;
47625;SDS011;33342;45.574;9.252;2023-05-19T13:50:10;15.23;;;12.80;;
47625;SDS011;33342;45.574;9.252;2023-05-19T13:52:38;15.60;;;12.27;;
47625;SDS011;33342;45.574;9.252;2023-05-19T13:55:05;17.23;;;13.68;;
47625;SDS011;33342;45.574;9.252;2023-05-19T13:57:33;16.48;;;13.40;;
47625;SDS011;33342;45.574;9.252;2023-05-19T14:00:00;15.15;;;12.48;;
47625;SDS011;33342;45.574;9.252;2023-05-19T14:02:38;17.27;;;12.90;;
47625;SDS011;33342;45.574;9.252;2023-05-19T14:05:06;17.95;;;12.63;;
47625;SDS011;33342;45.574;9.252;2023-05-19T14:07:34;16.55;;;13.07;;
47625;SDS011;33342;45.574;9.252;2023-05-19T14:10:01;15.80;;;12.95;;
47625;SDS011;33342;45.574;9.252;2023-05-19T14:12:31;18.45;;;12.98;;
47625;SDS011;33342;45.574;9.252;2023-05-19T14:15:18;19.77;;;13.82;;
47625;SDS011;33342;45.574;9.252;2023-05-19T14:17:45;17.67;;;13.07;;
47625;SDS011;33342;45.574;9.252;2023-05-19T14:20:14;19.23;;;13.25;;
47625;SDS011;33342;45.574;9.252;2023-05-19T14:22:41;17.58;;;13.75;;
47625;SDS011;33342;45.574;9.252;2023-05-19T14:25:08;18.92;;;13.18;;
47625;SDS011;33342;45.574;9.252;2023-05-19T14:27:36;16.35;;;12.07;;
47625;SDS011;33342;45.574;9.252;2023-05-19T14:30:06;18.00;;;13.05;;
47625;SDS011;33342;45.574;9.252;2023-05-19T14:32:33;29.80;;;21.75;;
47625;SDS011;33342;45.574;9.252;2023-05-19T14:35:01;21.35;;;15.68;;
47625;SDS011;33342;45.574;9.252;2023-05-19T14:37:28;17.85;;;12.20;;
47625;SDS011;33342;45.574;9.252;2023-05-19T14:39:57;16.85;;;11.95;;
47625;SDS011;33342;45.574;9.252;2023-05-19T14:42:24;17.63;;;13.20;;
47625;SDS011;33342;45.574;9.252;2023-05-19T14:44:51;16.10;;;11.85;;
47625;SDS011;33342;45.574;9.252;2023-05-19T14:47:19;16.27;;;11.80;;
47625;SDS011;33342;45.574;9.252;2023-05-19T14:49:46;16.70;;;12.15;;
47625;SDS011;33342;45.574;9.252;2023-05-19T14:52:13;17.70;;;12.20;;
47625;SDS011;33342;45.574;9.252;2023-05-19T14:54:40;19.33;;;12.27;;
47625;SDS011;33342;45.574;9.252;2023-05-19T14:57:07;18.83;;;12.35;;
47625;SDS011;33342;45.574;9.252;2023-05-19T14:59:37;19.58;;;12.80;;
47625;SDS011;33342;45.574;9.252;2023-05-19T15:02:04;18.52;;;13.30;;
47625;SDS011;33342;45.574;9.252;2023-05-19T15:04:31;15.38;;;11.93;;
47625;SDS011;33342;45.574;9.252;2023-05-19T15:06:58;16.23;;;11.50;;
47625;SDS011;33342;45.574;9.252;2023-05-19T15:09:28;14.73;;;11.65;;
47625;SDS011;33342;45.574;9.252;2023-05-19T15:11:55;15.70;;;10.77;;
47625;SDS011;33342;45.574;9.252;2023-05-19T15:14:22;15.70;;;11.95;;
47625;SDS011;33342;45.574;9.252;2023-05-19T15:16:49;14.35;;;11.25;;